createdAt,value
2019-03-06T00:01:25.129Z,3.80
2019-03-06T00:03:54.535Z,3.80
2019-03-06T00:06:23.877Z,3.80
2019-03-06T00:08:53.290Z,3.80
2019-03-06T00:11:22.749Z,3.80
2019-03-06T00:13:52.217Z,3.80
2019-03-06T00:16:21.551Z,3.80
2019-03-06T00:18:51.021Z,3.90
2019-03-06T00:21:20.355Z,3.90
2019-03-06T00:23:49.709Z,3.90
2019-03-06T00:26:19.095Z,4.00
2019-03-06T00:28:48.624Z,4.00
2019-03-06T00:31:18.007Z,4.00
2019-03-06T00:33:47.439Z,4.00
2019-03-06T00:36:20.574Z,4.00
2019-03-06T00:38:50.017Z,4.00
2019-03-06T00:41:38.446Z,4.00
2019-03-06T00:44:08.050Z,4.00
2019-03-06T00:46:37.465Z,4.00
2019-03-06T00:49:06.825Z,4.00
2019-03-06T00:51:36.225Z,3.90
2019-03-06T00:54:05.718Z,4.00
2019-03-06T00:56:35.135Z,4.00
2019-03-06T00:59:04.716Z,4.00
2019-03-06T01:01:34.146Z,4.00
2019-03-06T01:04:03.548Z,4.10
2019-03-06T01:06:33.327Z,4.10
2019-03-06T01:09:02.800Z,4.10
2019-03-06T01:11:32.385Z,4.10
2019-03-06T01:14:01.969Z,4.10
2019-03-06T01:16:31.282Z,4.10
2019-03-06T01:19:00.812Z,4.10
2019-03-06T01:21:30.162Z,4.20
2019-03-06T01:23:59.630Z,4.20
2019-03-06T01:26:29.079Z,4.20
2019-03-06T01:28:58.478Z,4.20
2019-03-06T01:31:27.845Z,4.20
2019-03-06T01:34:15.382Z,4.20
2019-03-06T01:36:52.610Z,4.20
2019-03-06T01:39:38.940Z,4.20
2019-03-06T01:42:36.102Z,4.20
2019-03-06T01:45:08.106Z,4.20
2019-03-06T01:47:37.437Z,4.20
2019-03-06T01:50:09.873Z,4.20
2019-03-06T01:52:39.226Z,4.20
2019-03-06T01:55:10.305Z,4.20
2019-03-06T01:57:39.786Z,4.20
2019-03-06T02:00:11.766Z,4.20
2019-03-06T02:02:41.089Z,4.20
2019-03-06T02:05:11.280Z,4.10
2019-03-06T02:07:41.653Z,4.10
2019-03-06T02:10:11.937Z,4.20
2019-03-06T02:12:41.395Z,4.10
2019-03-06T02:15:12.524Z,4.20
2019-03-06T02:17:41.959Z,4.10
2019-03-06T02:20:13.533Z,4.10
2019-03-06T02:22:43.010Z,4.10
2019-03-06T02:25:12.542Z,3.90
2019-03-06T02:27:42.258Z,3.60
2019-03-06T02:30:14.496Z,3.60
2019-03-06T02:32:43.932Z,3.50
2019-03-06T02:35:13.339Z,3.40
2019-03-06T02:37:42.818Z,3.30
2019-03-06T02:40:12.805Z,3.20
2019-03-06T02:42:42.307Z,3.10
2019-03-06T02:45:13.346Z,3.10
2019-03-06T02:47:42.734Z,3.10
2019-03-06T02:50:13.284Z,3.10
2019-03-06T02:52:42.931Z,3.00
2019-03-06T02:55:12.645Z,3.00
2019-03-06T02:57:46.485Z,3.00
2019-03-06T03:00:52.773Z,2.90
2019-03-06T03:03:31.424Z,2.90
2019-03-06T03:06:07.775Z,2.80
2019-03-06T03:08:37.255Z,2.80
2019-03-06T03:11:06.666Z,2.70
2019-03-06T03:13:36.119Z,2.70
2019-03-06T03:16:05.453Z,2.70
2019-03-06T03:18:34.846Z,2.60
2019-03-06T03:21:04.294Z,2.60
2019-03-06T03:23:33.702Z,2.60
2019-03-06T03:26:03.220Z,2.60
2019-03-06T03:28:32.622Z,2.60
2019-03-06T03:31:02.208Z,2.50
2019-03-06T03:33:31.632Z,2.50
2019-03-06T03:36:00.995Z,2.50
2019-03-06T03:38:30.434Z,2.50
2019-03-06T03:40:59.860Z,2.60
2019-03-06T03:43:29.295Z,2.60
2019-03-06T03:45:58.642Z,2.50
2019-03-06T03:48:27.978Z,2.50
2019-03-06T03:50:57.352Z,2.50
2019-03-06T03:53:26.794Z,2.60
2019-03-06T03:55:56.148Z,2.60
2019-03-06T03:58:25.528Z,2.60
2019-03-06T04:00:54.948Z,2.50
2019-03-06T04:03:24.802Z,2.60
2019-03-06T04:05:54.159Z,2.50
2019-03-06T04:08:23.587Z,2.50
2019-03-06T04:10:53.133Z,2.50
2019-03-06T04:13:22.599Z,2.60
2019-03-06T04:15:51.961Z,2.50
2019-03-06T04:18:21.313Z,2.50
2019-03-06T04:20:50.686Z,2.50
2019-03-06T04:23:20.365Z,2.50
2019-03-06T04:25:49.848Z,2.50
2019-03-06T04:28:19.416Z,2.50
2019-03-06T04:30:52.167Z,2.50
2019-03-06T04:33:21.710Z,2.60
2019-03-06T04:35:51.131Z,2.60
2019-03-06T04:38:20.503Z,2.60
2019-03-06T04:40:49.834Z,2.60
2019-03-06T04:43:19.233Z,2.60
2019-03-06T04:45:48.596Z,2.60
2019-03-06T04:48:18.050Z,2.60
2019-03-06T04:50:47.386Z,2.60
2019-03-06T04:53:16.850Z,2.60
2019-03-06T04:55:46.234Z,2.60
2019-03-06T04:58:15.704Z,2.70
2019-03-06T05:00:45.119Z,2.70
2019-03-06T05:03:14.557Z,2.70
2019-03-06T05:05:43.909Z,2.70
2019-03-06T05:08:13.339Z,2.70
2019-03-06T05:10:42.744Z,2.70
2019-03-06T05:13:12.094Z,2.70
2019-03-06T05:15:41.486Z,2.80
2019-03-06T05:18:23.121Z,2.80
2019-03-06T05:20:52.496Z,2.80
2019-03-06T05:23:21.968Z,2.80
2019-03-06T05:25:51.409Z,2.80
2019-03-06T05:28:20.843Z,2.80
2019-03-06T05:30:50.203Z,2.80
2019-03-06T05:33:19.659Z,2.80
2019-03-06T05:36:28.927Z,2.90
2019-03-06T05:39:04.329Z,2.90
2019-03-06T05:41:33.810Z,2.90
2019-03-06T05:44:03.334Z,2.90
2019-03-06T05:46:32.790Z,2.90
2019-03-06T05:49:02.331Z,2.90
2019-03-06T05:51:31.768Z,2.90
2019-03-06T05:54:01.238Z,3.00
2019-03-06T05:56:30.812Z,2.90
2019-03-06T05:59:00.241Z,2.90
2019-03-06T06:01:29.849Z,2.90
2019-03-06T06:03:59.183Z,2.90
2019-03-06T06:06:28.579Z,2.90
2019-03-06T06:08:58.279Z,2.90
2019-03-06T06:11:27.947Z,2.80
2019-03-06T06:13:57.697Z,2.80
2019-03-06T06:16:27.193Z,2.80
2019-03-06T06:18:56.702Z,2.80
2019-03-06T06:21:41.186Z,2.90
2019-03-06T06:24:20.382Z,2.80
2019-03-06T06:26:50.716Z,2.80
2019-03-06T06:29:20.242Z,2.80
2019-03-06T06:31:49.811Z,2.70
2019-03-06T06:34:19.421Z,2.80
2019-03-06T06:36:48.966Z,2.80
2019-03-06T06:39:18.295Z,2.80
2019-03-06T06:41:47.693Z,2.80
2019-03-06T06:44:17.251Z,2.80
2019-03-06T06:46:46.662Z,2.80
2019-03-06T06:49:16.039Z,2.80
2019-03-06T06:52:41.828Z,2.70
2019-03-06T06:55:18.411Z,2.70
2019-03-06T06:58:40.948Z,2.60
2019-03-06T07:01:47.883Z,2.60
2019-03-06T07:04:38.258Z,2.80
2019-03-06T07:07:26.583Z,2.80
2019-03-06T07:10:04.545Z,2.80
2019-03-06T07:12:53.178Z,2.80
2019-03-06T07:15:50.552Z,2.70
2019-03-06T07:18:37.226Z,2.70
2019-03-06T07:21:13.795Z,2.60
2019-03-06T07:24:02.350Z,2.70
2019-03-06T07:26:53.423Z,2.70
2019-03-06T07:29:41.978Z,2.60
2019-03-06T07:32:22.462Z,2.70
2019-03-06T07:35:59.893Z,2.70
2019-03-06T07:38:29.421Z,2.70
2019-03-06T07:41:09.816Z,2.60
2019-03-06T07:43:48.666Z,2.70
2019-03-06T07:46:37.400Z,2.70
2019-03-06T07:49:31.584Z,2.80
2019-03-06T07:52:32.338Z,2.90
2019-03-06T07:55:21.358Z,2.90
2019-03-06T07:58:26.715Z,3.00
2019-03-06T08:00:56.143Z,2.90
2019-03-06T08:03:38.811Z,2.90
2019-03-06T08:06:08.273Z,3.00
2019-03-06T08:08:37.766Z,3.00
2019-03-06T08:11:10.882Z,3.00
2019-03-06T08:13:48.299Z,3.00
2019-03-06T08:16:23.863Z,3.10
2019-03-06T08:19:06.138Z,3.20
2019-03-06T08:21:53.402Z,3.30
2019-03-06T08:24:31.448Z,3.40
2019-03-06T08:27:00.931Z,3.60
2019-03-06T08:29:30.339Z,3.60
2019-03-06T08:32:04.879Z,3.70
2019-03-06T08:34:34.554Z,3.80
2019-03-06T08:37:03.837Z,3.90
2019-03-06T08:39:33.281Z,3.90
2019-03-06T08:42:02.783Z,4.00
2019-03-06T08:44:32.180Z,4.10
2019-03-06T08:47:29.591Z,4.10
2019-03-06T08:50:18.010Z,4.30
2019-03-06T08:53:06.313Z,4.50
2019-03-06T08:55:47.048Z,4.90
2019-03-06T08:58:41.634Z,4.90
2019-03-06T09:02:00.878Z,4.90
2019-03-06T09:04:39.170Z,4.90
2019-03-06T09:07:24.822Z,4.60
2019-03-06T09:10:19.774Z,4.50
2019-03-06T09:12:58.366Z,4.30
2019-03-06T09:15:45.248Z,4.30
2019-03-06T09:18:39.943Z,4.30
2019-03-06T09:21:18.787Z,4.40
2019-03-06T09:24:05.403Z,4.40
2019-03-06T09:27:03.276Z,4.20
2019-03-06T09:29:54.462Z,4.20
2019-03-06T09:32:32.655Z,4.30
2019-03-06T09:35:24.036Z,4.30
2019-03-06T09:38:12.332Z,4.40
2019-03-06T09:40:59.410Z,4.20
2019-03-06T09:43:49.129Z,4.20
2019-03-06T09:46:24.806Z,4.50
2019-03-06T09:49:16.257Z,4.60
2019-03-06T09:52:13.537Z,4.60
2019-03-06T09:55:00.496Z,4.60
2019-03-06T09:57:35.392Z,4.70
2019-03-06T10:00:12.482Z,4.70
2019-03-06T10:03:10.351Z,4.70
2019-03-06T10:05:47.178Z,4.70
2019-03-06T10:08:24.509Z,4.60
2019-03-06T10:10:59.387Z,4.60
2019-03-06T10:13:34.363Z,4.60
2019-03-06T10:16:25.834Z,4.60
2019-03-06T10:19:15.455Z,4.50
2019-03-06T10:21:44.844Z,4.60
2019-03-06T10:24:14.298Z,4.50
2019-03-06T10:26:43.736Z,4.40
2019-03-06T10:29:13.229Z,4.40
2019-03-06T10:31:42.738Z,4.50
2019-03-06T10:34:12.147Z,4.60
2019-03-06T10:36:41.604Z,4.70
2019-03-06T10:39:14.753Z,4.60
2019-03-06T10:41:44.199Z,4.30
2019-03-06T10:44:14.021Z,4.60
2019-03-06T10:46:43.523Z,4.70
2019-03-06T10:49:12.986Z,4.80
2019-03-06T10:51:42.432Z,4.80
2019-03-06T10:54:11.935Z,4.80
2019-03-06T10:56:41.432Z,4.60
2019-03-06T10:59:11.169Z,4.60
2019-03-06T11:01:40.639Z,4.60
2019-03-06T11:04:38.266Z,4.60
2019-03-06T11:07:07.989Z,4.80
2019-03-06T11:09:37.678Z,5.00
2019-03-06T11:12:08.118Z,5.00
2019-03-06T11:14:38.134Z,5.20
2019-03-06T11:17:07.867Z,5.40
2019-03-06T11:19:37.615Z,5.50
2019-03-06T11:22:07.567Z,5.60
2019-03-06T11:24:37.252Z,5.70
2019-03-06T11:27:08.317Z,5.30
2019-03-06T11:29:37.898Z,5.40
2019-03-06T11:32:07.934Z,5.50
2019-03-06T11:34:37.439Z,5.70
2019-03-06T11:37:07.566Z,5.60
2019-03-06T11:39:37.007Z,5.50
2019-03-06T11:42:06.695Z,5.50
2019-03-06T11:44:36.154Z,5.40
2019-03-06T11:47:06.062Z,5.30
2019-03-06T11:49:35.777Z,5.20
2019-03-06T11:52:05.600Z,5.00
2019-03-06T11:54:35.017Z,5.10
2019-03-06T11:57:04.843Z,5.20
2019-03-06T11:59:34.589Z,5.20
2019-03-06T12:02:04.206Z,5.40
2019-03-06T12:04:33.868Z,5.40
2019-03-06T12:07:03.562Z,5.50
2019-03-06T12:09:33.900Z,5.60
2019-03-06T12:12:04.602Z,5.70
2019-03-06T12:14:34.293Z,5.90
2019-03-06T12:17:03.746Z,6.00
2019-03-06T12:19:33.582Z,6.10
2019-03-06T12:22:03.112Z,6.20
2019-03-06T12:24:32.601Z,6.10
2019-03-06T12:27:02.018Z,6.20
2019-03-06T12:29:31.480Z,6.10
2019-03-06T12:32:00.873Z,5.90
2019-03-06T12:34:30.526Z,5.90
2019-03-06T12:37:00.007Z,6.00
2019-03-06T12:39:29.449Z,5.90
2019-03-06T12:41:58.994Z,5.90
2019-03-06T12:44:28.455Z,5.90
2019-03-06T12:46:59.005Z,6.10
2019-03-06T12:49:29.570Z,6.30
2019-03-06T12:51:59.014Z,6.60
2019-03-06T12:54:28.490Z,7.20
2019-03-06T12:56:57.802Z,7.80
2019-03-06T12:59:27.161Z,8.20
2019-03-06T13:01:56.678Z,8.70
2019-03-06T13:04:26.130Z,8.80
2019-03-06T13:06:55.754Z,9.10
2019-03-06T13:09:25.130Z,9.50
2019-03-06T13:11:54.523Z,9.30
2019-03-06T13:14:24.311Z,9.50
2019-03-06T13:16:54.082Z,9.40
2019-03-06T13:19:23.586Z,9.10
2019-03-06T13:21:53.019Z,9.20
2019-03-06T13:24:22.520Z,8.90
2019-03-06T13:26:52.070Z,8.40
2019-03-06T13:29:21.682Z,8.20
2019-03-06T13:31:51.131Z,8.40
2019-03-06T13:34:36.434Z,9.20
2019-03-06T13:37:05.938Z,9.90
2019-03-06T13:39:35.669Z,10.70
2019-03-06T13:42:05.099Z,10.90
2019-03-06T13:44:34.443Z,11.60
2019-03-06T13:47:04.042Z,12.50
2019-03-06T13:49:33.545Z,13.20
2019-03-06T13:52:02.997Z,13.70
2019-03-06T13:54:32.702Z,14.60
2019-03-06T13:57:02.184Z,14.20
2019-03-06T13:59:31.639Z,13.90
2019-03-06T14:02:01.055Z,14.80
2019-03-06T14:04:31.029Z,15.00
2019-03-06T14:07:00.517Z,13.60
2019-03-06T14:09:30.361Z,13.80
2019-03-06T14:11:59.727Z,13.50
2019-03-06T14:14:29.333Z,13.90
2019-03-06T14:16:58.738Z,14.30
2019-03-06T14:19:28.180Z,15.60
2019-03-06T14:21:57.586Z,15.90
2019-03-06T14:24:27.158Z,16.70
2019-03-06T14:26:56.619Z,17.30
2019-03-06T14:29:26.075Z,17.40
2019-03-06T14:31:55.480Z,17.50
2019-03-06T14:34:25.111Z,17.20
2019-03-06T14:36:54.783Z,17.10
2019-03-06T14:39:29.786Z,16.50
2019-03-06T14:42:00.723Z,14.50
2019-03-06T14:44:30.180Z,13.90
2019-03-06T14:46:59.606Z,13.00
2019-03-06T14:49:30.423Z,12.70
2019-03-06T14:52:06.920Z,13.00
2019-03-06T14:54:31.449Z,13.70
2019-03-06T14:57:01.070Z,14.30
2019-03-06T14:59:30.485Z,14.50
2019-03-06T15:01:59.923Z,14.80
2019-03-06T15:04:29.720Z,14.50
2019-03-06T15:06:59.227Z,14.40
2019-03-06T15:09:29.629Z,14.90
2019-03-06T15:11:58.995Z,15.10
2019-03-06T15:14:35.850Z,15.40
2019-03-06T15:16:59.622Z,15.10
2019-03-06T15:19:29.114Z,15.20
2019-03-06T15:22:02.416Z,15.50
2019-03-06T15:24:40.715Z,15.00
2019-03-06T15:27:03.218Z,14.00
2019-03-06T15:29:32.671Z,14.00
2019-03-06T15:32:02.234Z,13.20
2019-03-06T15:34:31.666Z,12.60
2019-03-06T15:37:01.281Z,12.60
2019-03-06T15:39:42.651Z,12.20
2019-03-06T15:42:11.782Z,11.90
2019-03-06T15:44:41.999Z,11.70
2019-03-06T15:47:11.462Z,11.50
2019-03-06T15:49:41.008Z,11.30
2019-03-06T15:52:11.443Z,10.70
2019-03-06T15:54:41.006Z,10.60
2019-03-06T15:57:10.725Z,10.60
2019-03-06T15:59:51.938Z,10.50
2019-03-06T16:02:22.730Z,10.50
2019-03-06T16:04:52.142Z,10.50
2019-03-06T16:07:21.921Z,10.20
2019-03-06T16:09:51.413Z,10.10
2019-03-06T16:12:20.880Z,9.80
2019-03-06T16:14:50.918Z,9.70
2019-03-06T16:17:21.291Z,9.40
2019-03-06T16:19:51.009Z,9.20
2019-03-06T16:22:20.574Z,8.90
2019-03-06T16:24:50.002Z,8.60
2019-03-06T16:27:19.473Z,8.50
2019-03-06T16:29:48.854Z,8.10
2019-03-06T16:32:18.292Z,7.90
2019-03-06T16:34:48.008Z,7.70
2019-03-06T16:37:17.457Z,7.50
2019-03-06T16:39:46.918Z,7.30
2019-03-06T16:42:16.550Z,7.10
2019-03-06T16:44:46.272Z,7.00
2019-03-06T16:47:15.694Z,6.80
2019-03-06T16:49:45.152Z,6.70
2019-03-06T16:52:14.671Z,6.60
2019-03-06T16:54:44.196Z,6.40
2019-03-06T16:57:13.656Z,6.30
2019-03-06T16:59:43.103Z,6.20
2019-03-06T17:02:12.992Z,6.10
2019-03-06T17:04:43.756Z,6.00
2019-03-06T17:07:13.238Z,5.90
2019-03-06T17:09:42.704Z,5.90
2019-03-06T17:12:12.214Z,5.80
2019-03-06T17:14:42.047Z,5.70
2019-03-06T17:17:11.531Z,5.70
2019-03-06T17:19:41.115Z,5.60
2019-03-06T17:22:10.682Z,5.50
2019-03-06T17:24:40.093Z,5.50
2019-03-06T17:27:09.494Z,5.40
2019-03-06T17:29:54.106Z,5.30
2019-03-06T17:32:23.694Z,5.30
2019-03-06T17:34:53.722Z,5.10
2019-03-06T17:37:23.077Z,5.10
2019-03-06T17:39:52.501Z,4.90
2019-03-06T17:42:21.925Z,4.80
2019-03-06T17:44:51.550Z,4.80
2019-03-06T17:47:21.326Z,4.70
2019-03-06T17:49:50.879Z,4.70
2019-03-06T17:52:20.747Z,4.60
2019-03-06T17:54:50.443Z,4.60
2019-03-06T17:57:19.825Z,4.50
2019-03-06T17:59:49.437Z,4.50
2019-03-06T18:02:18.927Z,4.40
2019-03-06T18:04:48.353Z,4.30
2019-03-06T18:07:17.860Z,4.30
2019-03-06T18:09:47.383Z,4.30
2019-03-06T18:12:16.854Z,4.20
2019-03-06T18:14:46.569Z,4.20
2019-03-06T18:17:15.973Z,4.20
2019-03-06T18:19:45.346Z,4.20
2019-03-06T18:22:14.878Z,4.10
2019-03-06T18:24:44.418Z,4.10
2019-03-06T18:27:13.830Z,4.10
2019-03-06T18:29:43.235Z,4.00
2019-03-06T18:32:12.743Z,4.00
2019-03-06T18:34:42.208Z,4.00
2019-03-06T18:37:11.755Z,4.00
2019-03-06T18:39:41.396Z,4.10
2019-03-06T18:42:10.857Z,4.00
2019-03-06T18:44:40.320Z,4.00
2019-03-06T18:47:09.761Z,4.00
2019-03-06T18:49:39.206Z,4.00
2019-03-06T18:52:08.607Z,4.00
2019-03-06T18:54:38.138Z,4.10
2019-03-06T18:57:07.465Z,4.10
2019-03-06T18:59:40.074Z,4.00
2019-03-06T19:02:09.487Z,4.10
2019-03-06T19:04:39.009Z,4.00
2019-03-06T19:07:08.604Z,4.00
2019-03-06T19:09:38.086Z,4.00
2019-03-06T19:12:07.514Z,4.00
2019-03-06T19:14:38.074Z,3.90
2019-03-06T19:17:07.490Z,3.90
2019-03-06T19:19:36.954Z,3.90
2019-03-06T19:22:06.746Z,3.90
2019-03-06T19:24:39.223Z,3.90
2019-03-06T19:27:08.693Z,4.00
2019-03-06T19:29:38.148Z,3.90
2019-03-06T19:32:07.694Z,3.90
2019-03-06T19:34:37.142Z,3.90
2019-03-06T19:37:06.753Z,3.80
2019-03-06T19:39:36.147Z,3.80
2019-03-06T19:42:05.706Z,3.80
2019-03-06T19:44:35.210Z,3.80
2019-03-06T19:47:04.677Z,3.70
2019-03-06T19:49:34.120Z,3.70
2019-03-06T19:52:03.568Z,3.60
2019-03-06T19:54:33.034Z,3.70
2019-03-06T19:57:02.510Z,3.60
2019-03-06T19:59:32.079Z,3.60
2019-03-06T20:02:01.544Z,3.50
2019-03-06T20:04:31.081Z,3.50
2019-03-06T20:07:00.536Z,3.50
2019-03-06T20:09:30.107Z,3.50
2019-03-06T20:11:59.579Z,3.50
2019-03-06T20:14:29.052Z,3.50
2019-03-06T20:16:58.527Z,3.50
2019-03-06T20:19:28.067Z,3.50
2019-03-06T20:21:57.674Z,3.50
2019-03-06T20:24:27.290Z,3.50
2019-03-06T20:26:56.870Z,3.40
2019-03-06T20:29:26.345Z,3.40
2019-03-06T20:31:55.763Z,3.50
2019-03-06T20:34:25.242Z,3.40
2019-03-06T20:36:54.728Z,3.40
2019-03-06T20:39:24.234Z,3.40
2019-03-06T20:41:53.707Z,3.40
2019-03-06T20:44:23.199Z,3.40
2019-03-06T20:46:52.642Z,3.40
2019-03-06T20:49:22.076Z,3.40
2019-03-06T20:51:51.579Z,3.40
2019-03-06T20:54:21.052Z,3.40
2019-03-06T20:56:50.583Z,3.40
2019-03-06T20:59:20.519Z,3.40
2019-03-06T21:01:49.997Z,3.40
2019-03-06T21:04:20.205Z,3.40
2019-03-06T21:06:49.930Z,3.40
2019-03-06T21:09:19.507Z,3.40
2019-03-06T21:11:49.165Z,3.40
2019-03-06T21:14:18.655Z,3.40
2019-03-06T21:16:48.163Z,3.40
2019-03-06T21:19:17.654Z,3.40
2019-03-06T21:21:47.178Z,3.30
2019-03-06T21:24:16.644Z,3.30
2019-03-06T21:26:46.319Z,3.20
2019-03-06T21:29:15.803Z,3.30
2019-03-06T21:31:45.321Z,3.30
2019-03-06T21:34:14.686Z,3.30
2019-03-06T21:36:44.153Z,3.30
2019-03-06T21:39:24.815Z,3.20
2019-03-06T21:41:54.341Z,3.20
2019-03-06T21:44:23.852Z,3.20
2019-03-06T21:46:53.297Z,3.10
2019-03-06T21:49:22.818Z,3.10
2019-03-06T21:51:52.304Z,3.00
2019-03-06T21:54:21.932Z,3.00
2019-03-06T21:56:51.426Z,2.90
2019-03-06T21:59:20.994Z,2.90
2019-03-06T22:01:50.400Z,2.80
2019-03-06T22:04:19.890Z,2.80
2019-03-06T22:06:49.286Z,2.70
2019-03-06T22:09:18.951Z,2.70
2019-03-06T22:11:48.413Z,2.70
2019-03-06T22:14:17.910Z,2.60
2019-03-06T22:16:47.363Z,2.60
2019-03-06T22:19:16.816Z,2.60
2019-03-06T22:21:46.230Z,2.70
2019-03-06T22:24:15.740Z,2.70
2019-03-06T22:26:45.126Z,2.60
2019-03-06T22:29:14.527Z,2.60
2019-03-06T22:31:44.002Z,2.60
2019-03-06T22:34:13.438Z,2.60
2019-03-06T22:36:42.864Z,2.60
2019-03-06T22:39:12.695Z,2.60
2019-03-06T22:41:42.205Z,2.70
2019-03-06T22:44:11.654Z,2.80
2019-03-06T22:46:41.045Z,2.80
2019-03-06T22:49:10.495Z,2.80
2019-03-06T22:51:40.107Z,3.00
2019-03-06T22:54:09.617Z,3.10
2019-03-06T22:56:39.128Z,3.20
2019-03-06T22:59:08.696Z,3.40
2019-03-06T23:01:39.701Z,3.70
2019-03-06T23:04:09.348Z,3.80
2019-03-06T23:06:38.793Z,4.00
2019-03-06T23:09:10.787Z,4.00
2019-03-06T23:11:41.640Z,4.10
2019-03-06T23:14:11.020Z,4.20
2019-03-06T23:16:40.458Z,4.20
2019-03-06T23:19:09.818Z,4.20
2019-03-06T23:21:39.347Z,4.20
2019-03-06T23:24:08.776Z,4.20
2019-03-06T23:26:42.932Z,4.20
2019-03-06T23:29:09.318Z,4.20
2019-03-06T23:31:39.326Z,4.20
2019-03-06T23:34:09.570Z,4.20
2019-03-06T23:36:39.059Z,4.10
2019-03-06T23:39:14.058Z,4.10
2019-03-06T23:41:43.712Z,4.00
2019-03-06T23:44:14.836Z,4.00
2019-03-06T23:46:44.257Z,4.00
2019-03-06T23:49:13.727Z,4.00
2019-03-06T23:51:50.799Z,3.90
2019-03-06T23:54:20.298Z,3.90
2019-03-06T23:56:49.898Z,4.00
2019-03-06T23:59:19.324Z,3.90
